createdAt,value
2019-04-10T00:01:20.555Z,37.13
2019-04-10T00:03:52.529Z,38.88
2019-04-10T00:06:23.722Z,39.07
2019-04-10T00:08:54.746Z,41.37
2019-04-10T00:11:26.968Z,40.67
2019-04-10T00:13:58.742Z,42.00
2019-04-10T00:16:29.887Z,40.75
2019-04-10T00:19:00.505Z,40.12
2019-04-10T00:21:31.373Z,44.00
2019-04-10T00:24:02.616Z,40.10
2019-04-10T00:26:35.195Z,42.55
2019-04-10T00:29:06.420Z,40.78
2019-04-10T00:31:38.065Z,43.23
2019-04-10T00:34:10.169Z,42.27
2019-04-10T00:36:41.544Z,41.85
2019-04-10T00:39:12.631Z,38.70
2019-04-10T00:41:44.258Z,41.88
2019-04-10T00:44:16.435Z,41.83
2019-04-10T00:46:48.689Z,41.42
2019-04-10T00:49:20.179Z,40.80
2019-04-10T00:51:52.021Z,42.08
2019-04-10T00:54:23.714Z,39.57
2019-04-10T00:56:54.964Z,42.20
2019-04-10T00:59:26.231Z,43.68
2019-04-10T01:01:56.931Z,42.00
2019-04-10T01:04:28.430Z,43.23
2019-04-10T01:07:00.158Z,42.10
2019-04-10T01:09:31.337Z,42.55
2019-04-10T01:12:02.081Z,40.20
2019-04-10T01:14:33.940Z,42.13
2019-04-10T01:17:04.714Z,40.12
2019-04-10T01:19:36.365Z,39.18
2019-04-10T01:22:06.915Z,39.13
2019-04-10T01:24:37.672Z,42.67
2019-04-10T01:27:09.769Z,42.40
2019-04-10T01:29:40.438Z,42.65
2019-04-10T01:32:12.003Z,43.68
2019-04-10T01:34:43.356Z,43.23
2019-04-10T01:37:13.987Z,42.58
2019-04-10T01:39:45.045Z,43.68
2019-04-10T01:42:16.556Z,41.92
2019-04-10T01:44:47.144Z,41.40
2019-04-10T01:47:17.690Z,46.03
2019-04-10T01:49:48.960Z,41.37
2019-04-10T01:52:22.686Z,41.77
2019-04-10T01:54:53.440Z,42.43
2019-04-10T01:57:24.103Z,42.98
2019-04-10T01:59:56.439Z,44.43
2019-04-10T02:02:55.994Z,46.33
2019-04-10T02:05:26.571Z,45.70
2019-04-10T02:08:03.191Z,43.60
2019-04-10T02:10:34.258Z,46.08
2019-04-10T02:13:05.376Z,43.63
2019-04-10T02:15:36.342Z,47.98
2019-04-10T02:18:07.011Z,47.40
2019-04-10T02:20:47.348Z,43.38
2019-04-10T02:23:19.188Z,45.60
2019-04-10T02:25:49.843Z,45.98
2019-04-10T02:28:20.992Z,49.87
2019-04-10T02:30:51.880Z,44.73
2019-04-10T02:33:23.270Z,46.23
2019-04-10T02:35:54.873Z,45.30
2019-04-10T02:38:40.072Z,44.88
2019-04-10T02:40:58.121Z,46.15
2019-04-10T02:43:29.309Z,53.63
2019-04-10T02:46:00.538Z,45.63
2019-04-10T02:48:33.773Z,43.78
2019-04-10T02:51:05.529Z,51.30
2019-04-10T02:53:37.437Z,47.15
2019-04-10T02:56:08.216Z,48.87
2019-04-10T02:58:40.267Z,45.17
2019-04-10T03:01:13.444Z,46.55
2019-04-10T03:03:44.713Z,47.50
2019-04-10T03:06:15.719Z,44.83
2019-04-10T03:09:05.951Z,48.10
2019-04-10T03:11:20.145Z,47.38
2019-04-10T03:13:53.484Z,53.10
2019-04-10T03:16:24.308Z,98.10
2019-04-10T03:18:55.133Z,54.70
2019-04-10T03:21:25.634Z,65.60
2019-04-10T03:23:56.287Z,78.73
2019-04-10T03:26:27.900Z,74.45
2019-04-10T03:28:58.444Z,64.85
2019-04-10T03:31:30.078Z,71.50
2019-04-10T03:34:21.804Z,56.75
2019-04-10T03:36:53.800Z,49.80
2019-04-10T03:39:24.349Z,52.20
2019-04-10T03:41:54.812Z,52.70
2019-04-10T03:44:25.534Z,46.15
2019-04-10T03:46:56.307Z,48.87
2019-04-10T03:49:27.831Z,56.80
2019-04-10T03:51:58.886Z,51.80
2019-04-10T03:54:30.144Z,64.82
2019-04-10T03:57:01.064Z,79.75
2019-04-10T03:59:32.646Z,85.77
2019-04-10T04:02:03.598Z,52.43
2019-04-10T04:04:34.126Z,52.55
2019-04-10T04:07:25.969Z,48.42
2019-04-10T04:09:56.242Z,51.53
2019-04-10T04:12:26.832Z,51.25
2019-04-10T04:14:57.596Z,48.90
2019-04-10T04:17:28.380Z,52.90
2019-04-10T04:19:59.702Z,50.97
2019-04-10T04:22:30.599Z,52.40
2019-04-10T04:25:01.853Z,52.13
2019-04-10T04:27:33.509Z,57.27
2019-04-10T04:30:06.297Z,54.23
2019-04-10T04:32:37.948Z,55.67
2019-04-10T04:35:09.111Z,52.88
2019-04-10T04:37:39.836Z,49.80
2019-04-10T04:40:11.119Z,52.80
2019-04-10T04:42:42.526Z,55.38
2019-04-10T04:45:13.996Z,54.27
2019-04-10T04:47:45.217Z,54.03
2019-04-10T04:50:15.739Z,71.25
2019-04-10T04:52:52.035Z,57.90
2019-04-10T04:55:22.597Z,55.03
2019-04-10T04:57:53.586Z,57.17
2019-04-10T05:00:24.342Z,55.10
2019-04-10T05:02:55.830Z,54.75
2019-04-10T05:05:27.150Z,51.43
2019-04-10T05:08:01.978Z,54.18
2019-04-10T05:10:33.929Z,53.97
2019-04-10T05:13:06.145Z,53.13
2019-04-10T05:15:37.387Z,54.67
2019-04-10T05:18:08.094Z,57.13
2019-04-10T05:20:47.217Z,53.33
2019-04-10T05:23:26.585Z,55.83
2019-04-10T05:25:58.994Z,55.43
2019-04-10T05:28:50.729Z,54.70
2019-04-10T05:31:25.603Z,54.90
2019-04-10T05:33:57.433Z,59.30
2019-04-10T05:36:35.883Z,54.73
2019-04-10T05:39:08.557Z,60.10
2019-04-10T05:41:40.262Z,54.58
2019-04-10T05:44:11.642Z,57.70
2019-04-10T05:46:42.953Z,54.38
2019-04-10T05:49:14.958Z,55.52
2019-04-10T05:51:45.737Z,61.68
2019-04-10T05:54:17.136Z,58.30
2019-04-10T05:56:50.338Z,57.95
2019-04-10T05:59:21.812Z,62.78
2019-04-10T06:01:52.818Z,55.63
2019-04-10T06:04:25.306Z,58.85
2019-04-10T06:06:56.837Z,62.03
2019-04-10T06:09:27.451Z,58.13
2019-04-10T06:11:58.577Z,58.13
2019-04-10T06:14:30.400Z,59.35
2019-04-10T06:17:04.030Z,60.20
2019-04-10T06:19:34.456Z,61.83
2019-04-10T06:22:05.293Z,61.45
2019-04-10T06:24:36.418Z,58.80
2019-04-10T06:27:08.211Z,59.55
2019-04-10T06:29:39.402Z,60.90
2019-04-10T06:32:11.456Z,63.68
2019-04-10T06:34:42.609Z,68.55
2019-04-10T06:37:13.619Z,65.97
2019-04-10T06:39:45.993Z,62.07
2019-04-10T06:42:17.538Z,63.75
2019-04-10T06:44:48.371Z,61.55
2019-04-10T06:47:20.256Z,63.28
2019-04-10T06:49:51.356Z,58.90
2019-04-10T06:52:23.625Z,63.00
2019-04-10T06:54:55.405Z,65.15
2019-04-10T06:57:26.978Z,65.22
2019-04-10T06:59:59.785Z,65.17
2019-04-10T07:02:32.598Z,61.23
2019-04-10T07:05:07.424Z,62.95
2019-04-10T07:07:47.512Z,61.83
2019-04-10T07:10:20.593Z,59.50
2019-04-10T07:12:41.719Z,63.40
2019-04-10T07:15:13.016Z,61.95
2019-04-10T07:17:43.726Z,61.75
2019-04-10T07:20:18.385Z,64.00
2019-04-10T07:22:48.623Z,63.93
2019-04-10T07:25:21.709Z,64.25
2019-04-10T07:27:52.560Z,62.33
2019-04-10T07:30:26.069Z,63.60
2019-04-10T07:32:59.782Z,64.42
2019-04-10T07:35:42.228Z,64.47
2019-04-10T07:38:21.317Z,78.60
2019-04-10T07:40:54.614Z,69.20
2019-04-10T07:43:27.426Z,70.40
2019-04-10T07:45:57.618Z,67.77
2019-04-10T07:48:29.349Z,63.25
2019-04-10T07:51:00.624Z,62.70
2019-04-10T07:53:33.192Z,61.97
2019-04-10T07:56:09.038Z,62.78
2019-04-10T07:58:37.745Z,63.02
2019-04-10T08:01:10.235Z,62.75
2019-04-10T08:03:41.676Z,62.23
2019-04-10T08:06:13.198Z,62.85
2019-04-10T08:08:44.814Z,59.50
2019-04-10T08:11:15.831Z,61.58
2019-04-10T08:13:47.099Z,61.73
2019-04-10T08:16:17.683Z,60.90
2019-04-10T08:18:49.810Z,62.40
2019-04-10T08:21:21.768Z,58.52
2019-04-10T08:23:53.038Z,62.10
2019-04-10T08:26:24.727Z,61.77
2019-04-10T08:28:55.398Z,61.40
2019-04-10T08:31:26.108Z,62.10
2019-04-10T08:33:58.910Z,62.48
2019-04-10T08:36:29.732Z,59.10
2019-04-10T08:39:02.325Z,60.40
2019-04-10T08:41:35.191Z,61.92
2019-04-10T08:44:06.520Z,63.38
2019-04-10T08:46:37.800Z,63.33
2019-04-10T08:49:08.299Z,59.27
2019-04-10T08:51:39.446Z,58.28
2019-04-10T08:54:10.232Z,72.17
2019-04-10T08:56:42.825Z,60.52
2019-04-10T08:59:13.828Z,57.40
2019-04-10T09:01:45.225Z,57.83
2019-04-10T09:04:16.274Z,59.60
2019-04-10T09:06:47.389Z,61.45
2019-04-10T09:09:18.317Z,67.45
2019-04-10T09:11:49.478Z,57.35
2019-04-10T09:14:21.064Z,54.63
2019-04-10T09:16:53.026Z,56.13
2019-04-10T09:19:24.015Z,59.48
2019-04-10T09:21:55.432Z,51.58
2019-04-10T09:24:26.079Z,52.53
2019-04-10T09:26:57.877Z,56.02
2019-04-10T09:29:29.842Z,57.17
2019-04-10T09:32:02.334Z,56.23
2019-04-10T09:34:34.050Z,58.98
2019-04-10T09:37:04.680Z,57.45
2019-04-10T09:39:35.979Z,54.93
2019-04-10T09:42:17.737Z,57.23
2019-04-10T09:44:58.315Z,57.38
2019-04-10T09:47:32.533Z,59.85
2019-04-10T09:50:03.433Z,55.98
2019-04-10T09:52:33.970Z,56.83
2019-04-10T09:55:07.532Z,55.80
2019-04-10T09:57:38.826Z,54.60
2019-04-10T10:00:10.604Z,59.55
2019-04-10T10:02:43.222Z,61.37
2019-04-10T10:05:15.147Z,60.33
2019-04-10T10:07:47.116Z,58.43
2019-04-10T10:10:20.670Z,59.88
2019-04-10T10:12:52.677Z,60.53
2019-04-10T10:15:25.272Z,58.05
2019-04-10T10:17:57.145Z,56.23
2019-04-10T10:20:29.673Z,57.65
2019-04-10T10:23:03.293Z,57.38
2019-04-10T10:25:35.328Z,58.20
2019-04-10T10:28:06.978Z,59.10
2019-04-10T10:30:37.880Z,60.00
2019-04-10T10:33:09.846Z,59.77
2019-04-10T10:35:41.115Z,59.75
2019-04-10T10:38:12.929Z,55.12
2019-04-10T10:40:44.063Z,56.25
2019-04-10T10:43:14.679Z,58.40
2019-04-10T10:45:51.188Z,59.65
2019-04-10T10:48:25.055Z,56.98
2019-04-10T10:50:56.267Z,57.35
2019-04-10T10:53:26.968Z,56.73
2019-04-10T10:55:58.006Z,58.98
2019-04-10T10:58:30.262Z,58.48
2019-04-10T11:01:03.545Z,60.48
2019-04-10T11:03:40.556Z,61.63
2019-04-10T11:06:14.959Z,58.40
2019-04-10T11:08:47.775Z,58.48
2019-04-10T11:11:20.057Z,61.68
2019-04-10T11:13:52.539Z,59.42
2019-04-10T11:16:29.301Z,57.43
2019-04-10T11:19:07.113Z,56.65
2019-04-10T11:21:38.955Z,59.30
2019-04-10T11:24:11.075Z,65.47
2019-04-10T11:26:46.185Z,58.05
2019-04-10T11:29:17.688Z,57.75
2019-04-10T11:31:49.254Z,56.92
2019-04-10T11:34:29.301Z,54.73
2019-04-10T11:37:23.489Z,60.40
2019-04-10T11:39:50.127Z,56.00
2019-04-10T11:42:21.508Z,56.53
2019-04-10T11:44:54.449Z,60.23
2019-04-10T11:47:26.800Z,60.87
2019-04-10T11:50:01.614Z,62.88
2019-04-10T11:52:39.532Z,61.33
2019-04-10T11:55:13.821Z,58.60
2019-04-10T11:57:47.189Z,62.50
2019-04-10T12:00:23.735Z,58.28
2019-04-10T12:03:00.671Z,59.77
2019-04-10T12:05:31.795Z,55.27
2019-04-10T12:13:08.107Z,58.42
2019-04-10T12:15:38.785Z,60.30
2019-04-10T12:18:12.242Z,65.33
2019-04-10T12:20:47.613Z,63.90
2019-04-10T12:23:21.640Z,67.82
2019-04-10T12:25:53.465Z,68.20
2019-04-10T12:28:27.728Z,76.28
2019-04-10T12:30:59.486Z,71.12
2019-04-10T12:33:30.265Z,71.47
2019-04-10T12:36:02.380Z,71.47
2019-04-10T12:38:35.928Z,73.40
2019-04-10T12:41:07.220Z,66.87
2019-04-10T12:43:40.994Z,73.57
2019-04-10T12:46:11.239Z,72.30
2019-04-10T12:48:42.999Z,73.52
2019-04-10T12:51:15.249Z,68.67
2019-04-10T12:53:47.693Z,69.22
2019-04-10T12:56:18.962Z,70.47
2019-04-10T12:58:50.967Z,74.90
2019-04-10T13:01:24.685Z,74.45
2019-04-10T13:03:57.757Z,73.52
2019-04-10T13:06:29.661Z,69.47
2019-04-10T13:12:41.762Z,75.67
2019-04-10T13:15:13.110Z,70.42
2019-04-10T13:18:03.844Z,74.62
2019-04-10T13:20:34.086Z,70.13
2019-04-10T13:23:35.490Z,71.00
2019-04-10T13:26:13.483Z,67.77
2019-04-10T13:28:51.832Z,74.07
2019-04-10T13:31:25.583Z,66.80
2019-04-10T13:33:57.238Z,63.30
2019-04-10T13:36:29.388Z,64.92
2019-04-10T13:39:02.436Z,71.13
2019-04-10T13:41:34.759Z,66.07
2019-04-10T13:44:06.607Z,69.60
2019-04-10T13:46:38.752Z,81.87
2019-04-10T13:49:11.982Z,72.73
2019-04-10T13:51:43.591Z,71.03
2019-04-10T13:54:16.047Z,72.23
2019-04-10T13:56:47.955Z,76.67
2019-04-10T13:59:20.685Z,78.00
2019-04-10T14:01:54.687Z,76.17
2019-04-10T14:04:29.163Z,69.50
2019-04-10T14:07:02.477Z,67.23
2019-04-10T14:09:43.275Z,71.60
2019-04-10T14:12:08.296Z,67.33
2019-04-10T14:15:01.396Z,72.63
2019-04-10T14:17:50.020Z,63.23
2019-04-10T14:20:29.144Z,68.63
2019-04-10T14:23:08.331Z,68.97
2019-04-10T14:26:06.413Z,68.07
2019-04-10T14:28:37.565Z,67.00
2019-04-10T14:31:25.258Z,68.87
2019-04-10T14:33:56.506Z,68.90
2019-04-10T14:36:31.864Z,70.95
2019-04-10T14:39:19.326Z,72.47
2019-04-10T14:41:54.123Z,67.90
2019-04-10T14:44:25.444Z,71.97
2019-04-10T14:46:58.111Z,75.37
2019-04-10T14:49:33.357Z,67.37
2019-04-10T14:52:05.144Z,72.37
2019-04-10T14:54:37.591Z,78.17
2019-04-10T14:57:10.615Z,80.30
2019-04-10T14:59:46.255Z,77.90
2019-04-10T15:02:17.388Z,80.83
2019-04-10T15:04:51.278Z,76.70
2019-04-10T15:07:22.261Z,83.43
2019-04-10T15:09:55.163Z,88.73
2019-04-10T15:12:26.749Z,75.50
2019-04-10T15:14:58.026Z,77.07
2019-04-10T15:17:33.955Z,77.70
2019-04-10T15:20:11.234Z,79.57
2019-04-10T15:22:42.625Z,80.10
2019-04-10T15:25:14.965Z,83.10
2019-04-10T15:27:53.866Z,82.00
2019-04-10T15:30:24.551Z,82.83
2019-04-10T15:32:56.661Z,82.10
2019-04-10T15:35:32.939Z,85.40
2019-04-10T15:38:04.385Z,85.07
2019-04-10T15:40:42.239Z,86.10
2019-04-10T15:43:13.203Z,86.83
2019-04-10T15:45:44.518Z,86.35
2019-04-10T15:48:18.779Z,85.63
2019-04-10T15:50:51.729Z,85.37
2019-04-10T15:53:24.325Z,85.10
2019-04-10T15:58:52.583Z,80.03
2019-04-10T16:01:26.963Z,83.07
2019-04-10T16:03:59.228Z,82.93
2019-04-10T16:06:38.128Z,75.67
2019-04-10T16:09:09.599Z,78.53
2019-04-10T16:11:50.802Z,89.70
2019-04-10T16:14:25.385Z,87.20
2019-04-10T16:17:04.742Z,87.80
2019-04-10T16:19:45.056Z,88.90
2019-04-10T16:22:35.306Z,85.47
2019-04-10T16:25:29.779Z,88.80
2019-04-10T16:28:06.322Z,90.00
2019-04-10T16:30:37.392Z,83.33
2019-04-10T16:33:14.833Z,88.67
2019-04-10T16:35:48.583Z,92.07
2019-04-10T16:38:20.551Z,88.52
2019-04-10T16:41:00.785Z,87.33
2019-04-10T16:43:32.748Z,88.22
2019-04-10T16:46:04.921Z,86.82
2019-04-10T16:48:40.011Z,87.67
2019-04-10T16:51:12.042Z,87.30
2019-04-10T16:53:45.501Z,84.17
2019-04-10T16:56:40.185Z,90.17
2019-04-10T16:59:16.401Z,86.97
2019-04-10T17:01:47.879Z,87.40
2019-04-10T17:04:27.807Z,93.10
2019-04-10T17:06:59.393Z,85.30
2019-04-10T17:09:30.191Z,83.80
2019-04-10T17:12:01.369Z,87.10
2019-04-10T17:14:33.239Z,76.28
2019-04-10T17:17:06.213Z,77.47
2019-04-10T17:19:49.113Z,77.30
2019-04-10T17:22:14.476Z,78.07
2019-04-10T17:24:45.738Z,78.40
2019-04-10T17:27:16.729Z,79.43
2019-04-10T17:29:49.426Z,74.22
2019-04-10T17:32:21.417Z,72.87
2019-04-10T17:34:58.959Z,77.80
2019-04-10T17:37:29.855Z,74.57
2019-04-10T17:40:08.265Z,74.27
2019-04-10T17:42:40.890Z,74.70
2019-04-10T17:45:25.641Z,77.17
2019-04-10T17:48:01.062Z,73.77
2019-04-10T17:50:41.367Z,74.43
2019-04-10T17:53:16.713Z,79.47
2019-04-10T17:55:47.973Z,75.10
2019-04-10T17:58:21.275Z,71.53
2019-04-10T18:00:57.618Z,70.47
2019-04-10T18:03:44.845Z,73.23
2019-04-10T18:06:10.934Z,96.10
2019-04-10T18:08:47.188Z,74.87
2019-04-10T18:11:20.314Z,71.77
2019-04-10T18:13:55.243Z,74.73
2019-04-10T18:16:29.925Z,69.82
2019-04-10T18:19:02.297Z,78.13
2019-04-10T18:21:35.025Z,74.90
2019-04-10T18:24:08.137Z,73.97
2019-04-10T18:26:39.536Z,75.92
2019-04-10T18:29:11.007Z,79.42
2019-04-10T18:31:43.207Z,74.17
2019-04-10T18:34:15.968Z,76.53
2019-04-10T18:36:49.611Z,74.53
2019-04-10T18:39:21.925Z,76.40
2019-04-10T18:41:53.895Z,80.77
2019-04-10T18:44:25.759Z,80.30
2019-04-10T18:46:57.668Z,80.23
2019-04-10T18:49:31.716Z,79.17
2019-04-10T18:52:03.330Z,81.83
2019-04-10T18:54:35.938Z,84.73
2019-04-10T18:57:09.396Z,86.03
2019-04-10T18:59:58.860Z,79.35
2019-04-10T19:03:05.373Z,81.20
2019-04-10T19:05:41.149Z,83.72
2019-04-10T19:08:16.888Z,79.67
2019-04-10T19:10:48.385Z,79.97
2019-04-10T19:13:19.418Z,81.50
2019-04-10T19:15:50.605Z,78.70
2019-04-10T19:18:21.863Z,80.87
2019-04-10T19:20:53.186Z,81.17
2019-04-10T19:23:25.502Z,80.92
2019-04-10T19:25:58.867Z,80.87
2019-04-10T19:28:35.045Z,76.60
2019-04-10T19:31:13.513Z,78.47
2019-04-10T19:33:43.554Z,77.23
2019-04-10T19:36:17.552Z,79.23
2019-04-10T19:38:49.620Z,79.65
2019-04-10T19:41:29.705Z,80.25
2019-04-10T19:44:02.507Z,75.70
2019-04-10T19:46:37.716Z,74.57
2019-04-10T19:49:12.253Z,79.03
2019-04-10T19:51:50.934Z,78.33
2019-04-10T19:54:22.198Z,74.53
2019-04-10T19:56:57.038Z,77.50
2019-04-10T19:59:27.966Z,80.95
2019-04-10T20:01:58.862Z,78.47
2019-04-10T20:04:30.438Z,78.83
2019-04-10T20:07:01.359Z,77.58
2019-04-10T20:09:32.706Z,80.10
2019-04-10T20:12:07.062Z,79.70
2019-04-10T20:14:39.156Z,77.43
2019-04-10T20:17:11.409Z,78.78
2019-04-10T20:19:43.487Z,74.43
2019-04-10T20:22:14.998Z,75.37
2019-04-10T20:24:47.132Z,77.80
2019-04-10T20:27:18.767Z,78.93
2019-04-10T20:29:51.038Z,79.93
2019-04-10T20:32:22.843Z,81.25
2019-04-10T20:34:53.944Z,79.13
2019-04-10T20:37:24.845Z,78.83
2019-04-10T20:39:55.973Z,77.57
2019-04-10T20:42:27.221Z,80.15
2019-04-10T20:44:58.930Z,83.63
2019-04-10T20:47:35.069Z,79.40
2019-04-10T20:50:06.481Z,77.70
2019-04-10T20:52:40.541Z,78.07
2019-04-10T20:55:11.260Z,81.50
2019-04-10T20:57:43.699Z,83.50
2019-04-10T21:00:27.717Z,78.27
2019-04-10T21:03:43.208Z,78.20
2019-04-10T21:06:15.510Z,82.07
2019-04-10T21:08:46.719Z,83.73
2019-04-10T21:11:20.366Z,78.53
2019-04-10T21:13:51.319Z,81.37
2019-04-10T21:16:23.163Z,75.37
2019-04-10T21:18:54.418Z,78.13
2019-04-10T21:21:26.391Z,78.83
2019-04-10T21:23:57.231Z,79.17
2019-04-10T21:26:28.893Z,80.03
2019-04-10T21:29:00.331Z,78.07
2019-04-10T21:31:52.564Z,80.67
2019-04-10T21:34:32.460Z,79.13
2019-04-10T21:37:06.101Z,80.77
2019-04-10T21:39:38.162Z,81.17
2019-04-10T21:42:18.195Z,78.03
2019-04-10T21:44:42.861Z,79.82
2019-04-10T21:47:14.184Z,79.40
2019-04-10T21:49:46.336Z,81.12
2019-04-10T21:52:18.556Z,83.97
2019-04-10T21:54:54.566Z,80.27
2019-04-10T21:57:24.376Z,84.87
2019-04-10T21:59:57.184Z,81.43
2019-04-10T22:02:29.437Z,80.47
2019-04-10T22:05:01.120Z,81.07
2019-04-10T22:07:50.714Z,82.47
2019-04-10T22:10:32.293Z,88.13
2019-04-10T22:13:03.783Z,93.73
2019-04-10T22:15:43.221Z,83.85
2019-04-10T22:18:14.881Z,86.53
2019-04-10T22:20:45.828Z,84.13
2019-04-10T22:23:18.093Z,88.03
2019-04-10T22:25:50.112Z,86.23
2019-04-10T22:28:21.323Z,88.77
2019-04-10T22:30:52.674Z,84.30
2019-04-10T22:33:24.403Z,81.40
2019-04-10T22:35:55.992Z,90.07
2019-04-10T22:38:27.288Z,87.87
2019-04-10T22:40:58.211Z,89.43
2019-04-10T22:43:30.126Z,88.67
2019-04-10T22:46:02.585Z,89.47
2019-04-10T22:48:33.529Z,93.30
2019-04-10T22:51:04.316Z,90.93
2019-04-10T22:53:35.622Z,88.62
2019-04-10T22:56:06.965Z,88.22
2019-04-10T22:58:39.243Z,89.27
2019-04-10T23:01:13.032Z,83.43
2019-04-10T23:03:45.315Z,84.62
2019-04-10T23:06:17.364Z,86.00
2019-04-10T23:08:48.022Z,89.63
2019-04-10T23:11:30.462Z,93.30
2019-04-10T23:13:51.728Z,92.80
2019-04-10T23:16:24.092Z,96.20
2019-04-10T23:18:56.006Z,94.25
2019-04-10T23:21:28.275Z,96.23
2019-04-10T23:23:59.572Z,95.90
2019-04-10T23:26:31.212Z,91.47
2019-04-10T23:29:02.164Z,93.60
2019-04-10T23:31:34.029Z,97.27
2019-04-10T23:34:06.218Z,96.13
2019-04-10T23:36:40.313Z,96.12
2019-04-10T23:39:12.159Z,96.13
2019-04-10T23:41:43.271Z,98.43
2019-04-10T23:44:14.464Z,98.20
2019-04-10T23:46:45.656Z,94.77
2019-04-10T23:49:17.354Z,100.03
2019-04-10T23:51:49.721Z,99.07
2019-04-10T23:54:21.758Z,93.03
2019-04-10T23:56:52.899Z,92.92
2019-04-10T23:59:23.848Z,91.00
